Time;durP1;ratioP1;P1;durP2;ratioP2;P2;SDS_P1;SDS_P2;PMS_P1;PMS_P2;Temp;Humidity;BMP_temperature;BMP_pressure;BME280_temperature;BME280_humidity;BME280_pressure;Samples;Min_cycle;Max_cycle;Signal;HPM_P1;HPM_P2
2021/01/20 00:00:45;;;;;;;32.40;28.80;;;;;;;0.23;100.00;98338.22;2081131;28;20276;-77
2021/01/20 00:01:46;;;;;;;36.28;32.15;;;;;;;0.17;100.00;98341.81;2080865;28;20692;-78
2021/01/20 00:02:47;;;;;;;34.73;30.97;;;;;;;0.05;100.00;98312.31;2072727;28;20597;-78
2021/01/20 00:03:48;;;;;;;35.20;30.70;;;;;;;0.18;100.00;98348.66;2081002;28;20796;-78
2021/01/20 00:04:49;;;;;;;36.13;31.37;;;;;;;0.15;100.00;98339.44;2072781;28;20638;-78
2021/01/20 00:05:50;;;;;;;35.20;31.35;;;;;;;0.14;100.00;98353.59;2089239;28;20683;-78
2021/01/20 00:06:52;;;;;;;39.33;33.37;;;;;;;0.18;100.00;98351.28;2097477;28;20226;-78
2021/01/20 00:07:52;;;;;;;36.75;32.85;;;;;;;0.12;100.00;98347.00;2081266;28;20511;-78
2021/01/20 00:08:54;;;;;;;37.17;33.20;;;;;;;0.16;100.00;98350.72;2081735;28;20227;-78
2021/01/20 00:09:54;;;;;;;37.88;33.53;;;;;;;0.02;100.00;98342.44;2080863;28;20717;-78
2021/01/20 00:10:57;;;;;;;38.07;33.77;;;;;;;0.08;100.00;98359.00;2072674;28;20605;-78
2021/01/20 00:11:57;;;;;;;37.15;33.13;;;;;;;0.02;100.00;98349.53;2080544;28;20657;-78
2021/01/20 00:12:59;;;;;;;38.53;34.30;;;;;;;0.09;100.00;98360.59;2081179;28;20270;-78
2021/01/20 00:13:59;;;;;;;39.90;32.95;;;;;;;0.05;100.00;98351.66;2080928;28;20302;-78
2021/01/20 00:15:01;;;;;;;36.60;32.60;;;;;;;-0.01;100.00;98345.53;2080688;28;20227;-78
2021/01/20 00:16:02;;;;;;;37.00;31.65;;;;;;;-0.01;100.00;98350.78;2072853;28;20236;-77
2021/01/20 00:17:04;;;;;;;36.40;32.47;;;;;;;0.01;100.00;98353.97;2072965;28;20263;-78
2021/01/20 00:18:05;;;;;;;38.95;33.47;;;;;;;0.07;100.00;98358.22;2080899;28;20358;-78
2021/01/20 00:19:06;;;;;;;41.60;35.22;;;;;;;0.09;100.00;98363.22;2081796;28;20223;-78
2021/01/20 00:20:08;;;;;;;42.38;35.92;;;;;;;0.06;100.00;98356.66;2081477;28;20705;-78
2021/01/20 00:21:10;;;;;;;40.30;35.10;;;;;;;0.00;100.00;98352.41;2081731;28;20701;-78
2021/01/20 00:22:11;;;;;;;37.80;33.85;;;;;;;0.02;100.00;98366.06;2080938;28;20306;-78
2021/01/20 00:23:12;;;;;;;39.97;33.08;;;;;;;0.02;100.00;98362.63;2081062;28;20293;-78
2021/01/20 00:24:14;;;;;;;42.35;34.55;;;;;;;0.00;100.00;98365.50;2080812;28;20231;-78
2021/01/20 00:25:16;;;;;;;36.40;32.50;;;;;;;-0.02;100.00;98363.09;2080963;28;20223;-78
2021/01/20 00:26:18;;;;;;;36.30;32.33;;;;;;;0.01;100.00;98361.84;2081289;28;20231;-78
2021/01/20 00:27:20;;;;;;;36.65;32.17;;;;;;;-0.02;100.00;98370.97;2081716;28;20238;-78
2021/01/20 00:28:20;;;;;;;35.72;32.05;;;;;;;-0.09;100.00;98349.41;2080611;28;20251;-78
2021/01/20 00:29:22;;;;;;;41.57;33.47;;;;;;;-0.05;100.00;98360.97;2080944;28;20673;-78
2021/01/20 00:30:24;;;;;;;36.67;32.42;;;;;;;-0.07;100.00;98355.19;2080487;28;20323;-78
2021/01/20 00:31:25;;;;;;;37.10;33.05;;;;;;;-0.06;100.00;98362.03;2080799;28;20664;-79
2021/01/20 00:32:26;;;;;;;38.75;34.75;;;;;;;-0.05;100.00;98355.75;2081531;28;20310;-78
2021/01/20 00:33:28;;;;;;;38.53;34.40;;;;;;;-0.11;100.00;98351.47;2081286;28;20227;-78
2021/01/20 00:34:29;;;;;;;38.25;34.33;;;;;;;-0.09;100.00;98354.66;2080750;28;20704;-79
2021/01/20 00:35:30;;;;;;;39.30;34.50;;;;;;;-0.06;100.00;98364.66;2080961;28;20289;-78
2021/01/20 00:36:31;;;;;;;38.63;34.60;;;;;;;-0.13;100.00;98353.53;2080781;28;20517;-78
2021/01/20 00:37:32;;;;;;;38.07;34.27;;;;;;;-0.09;100.00;98354.66;2081064;28;20269;-78
2021/01/20 00:38:33;;;;;;;40.53;35.65;;;;;;;-0.08;100.00;98361.47;2080383;28;20231;-78
2021/01/20 00:39:34;;;;;;;37.27;32.50;;;;;;;-0.05;100.00;98357.56;2079768;28;20251;-78
2021/01/20 00:40:35;;;;;;;41.05;34.33;;;;;;;-0.07;100.00;98362.28;2072495;28;20692;-79
2021/01/20 00:41:37;;;;;;;38.13;34.13;;;;;;;-0.05;100.00;98360.19;2080601;28;20573;-78
2021/01/20 00:42:38;;;;;;;45.70;37.35;;;;;;;0.04;100.00;98355.31;2088567;28;20288;-78
2021/01/20 00:43:39;;;;;;;62.17;44.00;;;;;;;0.05;100.00;98360.31;2089009;28;20317;-78
2021/01/20 00:44:41;;;;;;;62.75;47.80;;;;;;;0.10;100.00;98342.03;2081442;28;20235;-78
2021/01/20 00:45:44;;;;;;;43.88;39.05;;;;;;;0.17;100.00;98362.78;2081404;28;20227;-79
2021/01/20 00:46:45;;;;;;;42.08;37.50;;;;;;;0.16;100.00;98350.72;2081025;28;20231;-78
2021/01/20 00:47:46;;;;;;;41.27;36.77;;;;;;;0.06;100.00;98345.38;2080654;28;20223;-78
2021/01/20 00:48:47;;;;;;;41.65;37.38;;;;;;;0.04;100.00;98350.06;2080612;28;20223;-78
2021/01/20 00:49:48;;;;;;;38.83;34.70;;;;;;;0.05;100.00;98355.06;2080671;28;20313;-79
2021/01/20 00:50:52;;;;;;;38.83;34.67;;;;;;;0.04;100.00;98355.31;2080635;28;20729;-78
2021/01/20 00:51:54;;;;;;;39.15;34.63;;;;;;;0.02;100.00;98354.78;2078103;28;20231;-78
2021/01/20 00:52:55;;;;;;;38.97;32.65;;;;;;;-0.07;100.00;98342.09;2072377;28;20682;-78
2021/01/20 00:53:56;;;;;;;37.70;33.67;;;;;;;-0.03;100.00;98347.63;2080673;28;20219;-79
2021/01/20 00:54:58;;;;;;;36.97;32.92;;;;;;;0.03;100.00;98357.16;2080508;28;20735;-79
2021/01/20 00:55:59;;;;;;;42.28;33.63;;;;;;;-0.01;100.00;98354.19;2072382;28;20224;-79
2021/01/20 00:57:01;;;;;;;40.33;34.60;;;;;;;-0.04;100.00;98346.84;2080669;28;20223;-79
2021/01/20 00:58:03;;;;;;;35.97;32.00;;;;;;;-0.05;100.00;98355.75;2081429;28;20223;-78
2021/01/20 00:59:03;;;;;;;38.42;32.17;;;;;;;-0.07;100.00;98349.94;2081457;28;20725;-79
2021/01/20 01:00:07;;;;;;;39.10;34.25;;;;;;;-0.09;100.00;98351.22;2080700;28;20234;-78
2021/01/20 01:01:16;;;;;;;35.88;32.05;;;;;;;-0.09;100.00;98357.28;2080116;28;20238;-79
2021/01/20 01:02:17;;;;;;;39.07;33.83;;;;;;;-0.17;100.00;98344.59;2080529;28;20266;-78
2021/01/20 01:03:19;;;;;;;39.13;32.15;;;;;;;-0.09;100.00;98349.41;2097111;28;20224;-79
2021/01/20 01:04:21;;;;;;;36.58;32.17;;;;;;;-0.13;100.00;98337.03;2088976;28;20232;-78
2021/01/20 01:05:23;;;;;;;39.22;34.85;;;;;;;-0.14;100.00;98341.47;2078360;28;20220;-78
2021/01/20 01:06:30;;;;;;;38.55;34.40;;;;;;;-0.08;100.00;98351.00;2080612;28;20694;-78
2021/01/20 01:07:36;;;;;;;41.92;37.45;;;;;;;-0.20;100.00;98337.19;2073273;28;20228;-78
2021/01/20 01:08:37;;;;;;;42.60;37.73;;;;;;;-0.21;100.00;98342.69;2071835;28;20251;-78
2021/01/20 01:09:39;;;;;;;42.65;38.15;;;;;;;-0.11;100.00;98359.31;2072350;28;20228;-79
2021/01/20 01:10:59;;;;;;;42.13;37.95;;;;;;;-0.18;100.00;98350.06;2082756;28;20272;-79
2021/01/20 01:12:16;;;;;;;47.30;39.88;;;;;;;-0.19;100.00;98357.13;2086354;28;20264;-79
2021/01/20 01:13:17;;;;;;;43.08;38.42;;;;;;;-0.18;100.00;98363.94;2080550;28;20223;-79
2021/01/20 01:14:36;;;;;;;43.60;39.15;;;;;;;-0.19;100.00;98358.97;2096391;28;20743;-78
2021/01/20 01:16:01;;;;;;;42.88;38.58;;;;;;;-0.26;100.00;98351.28;2085046;28;20254;-79
2021/01/20 01:17:02;;;;;;;41.70;37.22;;;;;;;-0.22;100.00;98359.44;2080359;28;20219;-79
2021/01/20 01:18:12;;;;;;;42.47;37.97;;;;;;;-0.23;100.00;98358.66;2069835;28;20410;-79
2021/01/20 01:19:13;;;;;;;42.05;37.50;;;;;;;-0.23;100.00;98360.50;2072243;28;20271;-79
2021/01/20 01:20:15;;;;;;;44.75;36.88;;;;;;;-0.22;100.00;98354.22;2072421;28;20220;-79
2021/01/20 01:21:17;;;;;;;42.80;38.17;;;;;;;-0.27;100.00;98352.31;2088885;28;20276;-79
2021/01/20 01:22:18;;;;;;;41.42;36.78;;;;;;;-0.24;100.00;98364.94;2088484;28;20218;-79
2021/01/20 01:23:21;;;;;;;43.05;36.25;;;;;;;-0.31;100.00;98346.75;2080724;28;20310;-79
2021/01/20 01:24:22;;;;;;;41.42;36.92;;;;;;;-0.22;100.00;98355.00;2079957;28;20230;-79
2021/01/20 01:25:24;;;;;;;42.58;38.25;;;;;;;-0.19;100.00;98353.72;2080415;28;20588;-78
2021/01/20 01:26:27;;;;;;;45.28;38.65;;;;;;;-0.26;100.00;98342.59;2080273;28;20231;-78
2021/01/20 01:27:29;;;;;;;42.70;38.45;;;;;;;-0.26;100.00;98348.66;2072317;28;20231;-78
2021/01/20 01:28:35;;;;;;;44.42;37.97;;;;;;;-0.24;100.00;98348.44;2073123;28;20228;-78
2021/01/20 01:29:59;;;;;;;43.95;37.10;;;;;;;-0.24;100.00;98338.72;2076803;28;20250;-78
2021/01/20 01:31:07;;;;;;;44.03;38.65;;;;;;;-0.23;100.00;98342.94;2079982;28;20219;-78
2021/01/20 01:32:09;;;;;;;40.10;35.97;;;;;;;-0.24;100.00;98348.44;2080311;28;20229;-78
2021/01/20 01:33:11;;;;;;;39.70;35.33;;;;;;;-0.26;100.00;98343.44;2080204;28;20706;-79
2021/01/20 01:34:16;;;;;;;41.30;36.47;;;;;;;-0.26;100.00;98343.44;2080383;28;20224;-78
2021/01/20 01:35:17;;;;;;;42.45;34.45;;;;;;;-0.26;100.00;98346.06;2080320;28;20276;-78
2021/01/20 01:36:28;;;;;;;38.65;34.58;;;;;;;-0.30;100.00;98337.06;2073063;28;20310;-78
2021/01/20 01:37:31;;;;;;;43.35;36.78;;;;;;;-0.25;100.00;98339.78;2072536;28;20216;-78
2021/01/20 01:38:56;;;;;;;39.45;35.17;;;;;;;-0.24;100.00;98343.97;2073366;28;20709;-78
2021/01/20 01:40:05;;;;;;;43.40;37.08;;;;;;;-0.23;100.00;98342.94;2096281;28;20214;-78
2021/01/20 01:41:10;;;;;;;43.47;37.05;;;;;;;-0.23;100.00;98345.56;2087285;28;20227;-78
2021/01/20 01:42:27;;;;;;;44.15;38.88;;;;;;;-0.23;100.00;98347.38;2073176;28;20231;-78
2021/01/20 01:43:30;;;;;;;42.42;37.90;;;;;;;-0.19;100.00;98344.03;2080614;28;20605;-78
2021/01/20 01:44:55;;;;;;;41.53;37.22;;;;;;;-0.19;100.00;98349.25;2093805;28;20700;-79
2021/01/20 01:45:58;;;;;;;40.92;36.03;;;;;;;-0.26;100.00;98338.19;2087960;28;20305;-78
2021/01/20 01:46:59;;;;;;;40.55;35.08;;;;;;;-0.19;100.00;98349.25;2079959;28;20247;-78
2021/01/20 01:48:07;;;;;;;39.75;35.47;;;;;;;-0.15;100.00;98346.97;2079541;28;20243;-77
2021/01/20 01:49:09;;;;;;;38.38;34.28;;;;;;;-0.14;100.00;98348.53;2080192;28;20227;-78
2021/01/20 01:50:10;;;;;;;39.72;35.55;;;;;;;-0.16;100.00;98338.31;2072064;28;20581;-79
2021/01/20 01:51:12;;;;;;;44.25;38.53;;;;;;;-0.10;100.00;98342.56;2071850;28;20240;-78
2021/01/20 01:52:34;;;;;;;41.95;37.17;;;;;;;-0.10;100.00;98345.19;2074031;28;20228;-78
2021/01/20 01:53:35;;;;;;;41.00;36.95;;;;;;;-0.13;100.00;98348.28;2080111;28;20243;-77
2021/01/20 01:54:45;;;;;;;42.55;37.35;;;;;;;-0.11;100.00;98345.44;2079692;28;20228;-78
2021/01/20 01:55:57;;;;;;;43.38;34.80;;;;;;;-0.16;100.00;98346.16;2077702;28;20235;-78
2021/01/20 01:57:25;;;;;;;39.20;34.80;;;;;;;-0.14;100.00;98348.53;2069954;28;20358;-78
2021/01/20 01:58:29;;;;;;;43.63;34.33;;;;;;;-0.20;100.00;98334.56;2071508;28;20235;-77
2021/01/20 01:59:37;;;;;;;42.60;34.97;;;;;;;-0.12;100.00;98352.50;2071312;28;20646;-77
2021/01/20 02:00:42;;;;;;;40.60;34.25;;;;;;;-0.18;100.00;98334.31;2072321;28;20307;-77
2021/01/20 02:01:50;;;;;;;38.05;33.33;;;;;;;-0.08;100.00;98345.75;2071688;28;20224;-77
2021/01/20 02:02:59;;;;;;;41.47;34.70;;;;;;;-0.09;100.00;98349.41;2078387;28;20223;-77
2021/01/20 02:04:02;;;;;;;39.05;34.85;;;;;;;-0.12;100.00;98344.63;2080010;28;20613;-77
2021/01/20 02:05:13;;;;;;;44.25;34.35;;;;;;;-0.16;100.00;98333.06;2072546;28;20232;-76
2021/01/20 02:06:18;;;;;;;38.20;33.85;;;;;;;-0.14;100.00;98336.22;2069458;28;20225;-77
2021/01/20 02:07:22;;;;;;;43.15;35.42;;;;;;;-0.04;100.00;98357.31;2085858;28;20302;-77
2021/01/20 02:08:24;;;;;;;37.05;33.15;;;;;;;-0.11;100.00;98340.97;2067404;28;20557;-77
2021/01/20 02:09:39;;;;;;;41.13;33.83;;;;;;;-0.11;100.00;98340.19;2087205;28;20229;-77
2021/01/20 02:10:40;;;;;;;38.83;32.40;;;;;;;-0.05;100.00;98352.31;2088002;28;20227;-77
2021/01/20 02:11:51;;;;;;;41.10;33.23;;;;;;;-0.04;100.00;98351.28;2080113;28;20305;-77
2021/01/20 02:13:20;;;;;;;43.70;34.15;;;;;;;-0.03;100.00;98347.63;2072755;28;20466;-77
2021/01/20 02:14:50;;;;;;;40.03;35.90;;;;;;;-0.04;100.00;98351.28;2078084;28;20243;-77
2021/01/20 02:16:07;;;;;;;42.63;35.28;;;;;;;-0.06;100.00;98353.38;2079504;28;20230;-77
2021/01/20 02:17:12;;;;;;;45.53;35.90;;;;;;;-0.05;100.00;98355.75;2066023;28;20625;-77
2021/01/20 02:18:19;;;;;;;36.03;32.00;;;;;;;-0.08;100.00;98352.81;2065617;28;20619;-77
2021/01/20 02:20:05;;;;;;;40.97;33.55;;;;;;;-0.05;100.00;98360.97;2074248;28;20259;-77
2021/01/20 02:21:30;;;;;;;35.83;31.55;;;;;;;-0.06;100.00;98354.16;2077093;28;20230;-77
2021/01/20 02:23:07;;;;;;;37.00;32.65;;;;;;;-0.05;100.00;98353.13;2066237;28;20226;-78
2021/01/20 02:24:34;;;;;;;37.15;33.10;;;;;;;-0.06;100.00;98348.91;2078849;28;20693;-79
2021/01/20 02:26:15;;;;;;;40.72;33.30;;;;;;;-0.04;100.00;98351.28;2079430;28;20223;-79
2021/01/20 02:27:48;;;;;;;40.88;32.63;;;;;;;-0.06;100.00;98354.16;2071031;28;20235;-78
2021/01/20 02:29:19;;;;;;;38.88;33.20;;;;;;;-0.05;100.00;98350.50;2079327;28;20257;-78
2021/01/20 02:30:29;;;;;;;37.65;33.60;;;;;;;-0.02;100.00;98355.25;2090753;28;20233;-79
2021/01/20 02:31:35;;;;;;;39.28;34.35;;;;;;;-0.03;100.00;98358.09;2087208;28;20804;-79
2021/01/20 02:32:37;;;;;;;41.97;35.57;;;;;;;-0.01;100.00;98356.81;2079881;28;20626;-79
2021/01/20 02:33:43;;;;;;;39.90;34.72;;;;;;;-0.06;100.00;98351.53;2079510;28;20459;-79
2021/01/20 02:35:00;;;;;;;40.97;35.22;;;;;;;-0.09;100.00;98346.78;2073310;28;20231;-79
2021/01/20 02:36:03;;;;;;;41.22;34.63;;;;;;;-0.04;100.00;98346.03;2079862;28;20691;-79
2021/01/20 02:37:11;;;;;;;38.88;33.35;;;;;;;-0.06;100.00;98350.75;2079464;28;20740;-79
2021/01/20 02:38:28;;;;;;;38.88;34.28;;;;;;;-0.01;100.00;98358.66;2078975;28;20257;-79
2021/01/20 02:39:41;;;;;;;41.85;34.25;;;;;;;-0.04;100.00;98356.53;2079479;28;20251;-79
2021/01/20 02:40:58;;;;;;;44.13;36.38;;;;;;;-0.10;100.00;98347.81;2079232;28;20211;-79
2021/01/20 02:42:17;;;;;;;38.13;34.05;;;;;;;0.01;100.00;98367.09;2079166;28;20572;-78
2021/01/20 02:43:25;;;;;;;40.75;35.22;;;;;;;-0.07;100.00;98355.19;2072079;28;20282;-78
2021/01/20 02:44:45;;;;;;;39.78;34.35;;;;;;;-0.08;100.00;98348.38;2073501;28;20220;-78
2021/01/20 02:46:05;;;;;;;38.03;34.08;;;;;;;-0.05;100.00;98354.94;2080199;28;20297;-78
2021/01/20 02:47:09;;;;;;;39.50;35.42;;;;;;;-0.04;100.00;98359.94;2079683;28;20709;-78
2021/01/20 02:48:23;;;;;;;42.20;37.20;;;;;;;-0.11;100.00;98348.84;2067310;28;20232;-78
2021/01/20 02:49:25;;;;;;;42.92;36.25;;;;;;;-0.05;100.00;98360.19;2077743;28;20227;-79
2021/01/20 02:50:26;;;;;;;41.00;35.80;;;;;;;-0.03;100.00;98358.91;2079849;28;20674;-78
2021/01/20 02:51:37;;;;;;;46.38;39.00;;;;;;;-0.04;100.00;98357.31;2079267;28;20238;-78
2021/01/20 02:53:02;;;;;;;43.70;38.00;;;;;;;-0.16;100.00;98340.94;2079276;28;20258;-78
2021/01/20 02:54:37;;;;;;;40.17;33.72;;;;;;;-0.04;100.00;98357.31;2079439;28;20625;-79
2021/01/20 02:56:00;;;;;;;42.17;35.35;;;;;;;-0.10;100.00;98341.75;2078679;28;20239;-78
2021/01/20 02:57:20;;;;;;;39.90;34.60;;;;;;;0.01;100.00;98353.97;2079707;28;20654;-79
2021/01/20 02:58:32;;;;;;;39.40;34.38;;;;;;;-0.01;100.00;98354.19;2071015;28;20219;-79
2021/01/20 02:59:55;;;;;;;41.63;34.50;;;;;;;-0.01;100.00;98354.19;2073834;28;20223;-78
2021/01/20 03:01:11;;;;;;;39.88;34.60;;;;;;;-0.01;100.00;98351.56;2079204;28;20223;-78
2021/01/20 03:02:14;;;;;;;39.53;34.70;;;;;;;0.00;100.00;98352.41;2079625;28;20309;-78
2021/01/20 03:03:16;;;;;;;41.42;34.60;;;;;;;-0.01;100.00;98348.94;2080137;28;20238;-78
2021/01/20 03:04:18;;;;;;;40.28;33.60;;;;;;;-0.09;100.00;98332.84;2080471;28;20302;-79
2021/01/20 03:05:19;;;;;;;43.03;36.05;;;;;;;0.01;100.00;98350.56;2080320;28;20219;-78
2021/01/20 03:06:21;;;;;;;41.83;35.28;;;;;;;-0.04;100.00;98341.59;2080465;28;20231;-78
2021/01/20 03:07:22;;;;;;;43.05;35.05;;;;;;;0.06;100.00;98351.41;2080060;28;20676;-78
2021/01/20 03:08:26;;;;;;;37.70;33.30;;;;;;;0.04;100.00;98352.69;2080323;28;20582;-79
2021/01/20 03:09:27;;;;;;;37.95;33.63;;;;;;;0.01;100.00;98353.19;2080250;28;20234;-78
2021/01/20 03:10:28;;;;;;;44.55;35.60;;;;;;;0.04;100.00;98352.69;2080399;28;20228;-78
2021/01/20 03:11:29;;;;;;;41.20;36.33;;;;;;;0.01;100.00;98353.97;2080268;28;20227;-78
2021/01/20 03:12:31;;;;;;;42.03;35.93;;;;;;;-0.01;100.00;98345.53;2080292;28;20225;-79
2021/01/20 03:13:34;;;;;;;38.78;34.53;;;;;;;-0.06;100.00;98346.28;2080436;28;20211;-79
2021/01/20 03:14:37;;;;;;;40.08;33.08;;;;;;;0.06;100.00;98355.84;2080422;28;20276;-78
2021/01/20 03:15:39;;;;;;;38.95;32.90;;;;;;;0.03;100.00;98354.53;2079786;28;20231;-78
2021/01/20 03:16:41;;;;;;;39.15;33.63;;;;;;;0.06;100.00;98353.22;2080308;28;20235;-78
2021/01/20 03:17:44;;;;;;;42.80;33.38;;;;;;;0.08;100.00;98362.44;2080444;28;20232;-77
2021/01/20 03:18:45;;;;;;;36.95;33.00;;;;;;;0.08;100.00;98359.00;2080231;28;20705;-77
2021/01/20 03:19:46;;;;;;;36.72;32.92;;;;;;;0.07;100.00;98352.19;2080450;28;20235;-77
2021/01/20 03:20:47;;;;;;;38.17;33.58;;;;;;;0.06;100.00;98340.91;2080486;28;20219;-77
2021/01/20 03:21:48;;;;;;;41.87;36.67;;;;;;;0.09;100.00;98355.34;2080406;28;20230;-77
2021/01/20 03:22:49;;;;;;;40.85;36.55;;;;;;;0.13;100.00;98361.72;2080273;28;20226;-77
2021/01/20 03:23:50;;;;;;;40.77;36.67;;;;;;;0.06;100.00;98346.16;2080340;28;20318;-77
2021/01/20 03:24:51;;;;;;;41.78;37.17;;;;;;;0.07;100.00;98346.94;2080330;28;20289;-77
2021/01/20 03:25:52;;;;;;;40.10;35.97;;;;;;;0.10;100.00;98364.84;2079858;28;20305;-78
2021/01/20 03:26:53;;;;;;;39.88;35.55;;;;;;;0.10;100.00;98354.34;2079878;28;20231;-77
2021/01/20 03:27:55;;;;;;;39.03;35.07;;;;;;;-0.03;100.00;98347.63;2080255;28;20235;-77
2021/01/20 03:28:55;;;;;;;39.58;35.47;;;;;;;0.07;100.00;98357.44;2080339;28;20556;-77
2021/01/20 03:29:57;;;;;;;38.37;34.50;;;;;;;0.10;100.00;98356.97;2080236;28;20329;-77
2021/01/20 03:30:58;;;;;;;40.33;36.35;;;;;;;0.12;100.00;98349.63;2080182;28;20285;-76
2021/01/20 03:32:00;;;;;;;38.23;34.33;;;;;;;0.13;100.00;98356.47;2080295;28;20334;-77
2021/01/20 03:33:01;;;;;;;40.30;36.22;;;;;;;0.08;100.00;98348.53;2080075;28;20799;-77
2021/01/20 03:34:02;;;;;;;43.07;37.23;;;;;;;0.12;100.00;98345.19;2079453;28;20302;-78
2021/01/20 03:35:03;;;;;;;40.50;36.30;;;;;;;0.14;100.00;98347.56;2080104;28;20227;-76
2021/01/20 03:36:06;;;;;;;40.60;36.40;;;;;;;0.07;100.00;98333.84;2080154;28;20671;-77
2021/01/20 03:37:06;;;;;;;37.53;33.47;;;;;;;0.16;100.00;98354.13;2079902;28;20227;-77
2021/01/20 03:38:08;;;;;;;39.50;35.57;;;;;;;0.14;100.00;98348.34;2080050;28;20231;-76
2021/01/20 03:39:09;;;;;;;37.42;33.70;;;;;;;0.14;100.00;98358.84;2080313;28;20592;-76
2021/01/20 03:40:11;;;;;;;39.30;35.40;;;;;;;0.14;100.00;98358.84;2080316;28;20302;-76
2021/01/20 03:41:12;;;;;;;38.80;34.90;;;;;;;0.18;100.00;98357.31;2079884;28;20701;-76
2021/01/20 03:42:14;;;;;;;37.77;33.97;;;;;;;0.21;100.00;98356.03;2080065;28;20650;-76
2021/01/20 03:43:14;;;;;;;39.10;34.92;;;;;;;0.24;100.00;98355.53;2080269;28;20589;-76
2021/01/20 03:44:16;;;;;;;38.10;34.40;;;;;;;0.18;100.00;98346.03;2080300;28;20242;-75
2021/01/20 03:45:16;;;;;;;42.08;37.75;;;;;;;0.25;100.00;98360.53;2080298;28;20281;-75
2021/01/20 03:46:18;;;;;;;38.40;34.33;;;;;;;0.23;100.00;98354.75;2080288;28;20276;-75
2021/01/20 03:47:19;;;;;;;40.75;36.47;;;;;;;0.11;100.00;98334.94;2080032;28;20592;-75
2021/01/20 03:48:21;;;;;;;38.33;34.33;;;;;;;0.22;100.00;98350.53;2080267;28;20306;-75
2021/01/20 03:49:21;;;;;;;37.78;34.25;;;;;;;0.29;100.00;98355.59;2080097;28;20662;-76
2021/01/20 03:50:23;;;;;;;37.03;33.23;;;;;;;0.27;100.00;98357.69;2079732;28;20694;-77
2021/01/20 03:51:27;;;;;;;37.00;33.50;;;;;;;0.24;100.00;98358.16;2080106;28;20256;-77
2021/01/20 03:52:29;;;;;;;36.85;32.90;;;;;;;0.27;100.00;98360.31;2080051;28;20554;-78
2021/01/20 03:53:30;;;;;;;38.13;33.97;;;;;;;0.25;100.00;98355.28;2080087;28;20225;-78
2021/01/20 03:54:31;;;;;;;36.30;32.47;;;;;;;0.22;100.00;98355.00;2080177;28;20753;-77
2021/01/20 03:55:31;;;;;;;34.28;30.67;;;;;;;0.18;100.00;98346.03;2079757;28;20242;-76
2021/01/20 03:56:33;;;;;;;35.20;31.53;;;;;;;0.22;100.00;98355.78;2080056;28;20259;-76
2021/01/20 03:57:33;;;;;;;35.03;31.48;;;;;;;0.15;100.00;98347.31;2080277;28;20220;-76
2021/01/20 03:58:35;;;;;;;35.30;31.67;;;;;;;0.18;100.00;98349.44;2080324;28;20306;-77
2021/01/20 03:59:35;;;;;;;37.03;33.25;;;;;;;0.22;100.00;98360.22;2080257;28;20298;-77
2021/01/20 04:00:37;;;;;;;35.60;32.03;;;;;;;0.23;100.00;98365.22;2080433;28;20729;-77
2021/01/20 04:01:38;;;;;;;36.42;32.08;;;;;;;0.07;100.00;98337.25;2079780;28;20243;-76
2021/01/20 04:02:40;;;;;;;35.87;32.23;;;;;;;0.25;100.00;98364.97;2080030;28;20231;-76
2021/01/20 04:03:53;;;;;;;35.22;31.60;;;;;;;0.30;100.00;98372.91;2078757;28;20361;-79
2021/01/20 04:04:57;;;;;;;33.92;30.63;;;;;;;0.31;100.00;98371.88;2079411;28;20629;-76
2021/01/20 04:05:58;;;;;;;32.72;29.42;;;;;;;0.26;100.00;98367.38;2071582;28;20267;-76
2021/01/20 04:07:01;;;;;;;34.67;30.97;;;;;;;0.27;100.00;98362.94;2071057;28;20678;-76
2021/01/20 04:08:02;;;;;;;33.28;29.85;;;;;;;0.20;100.00;98349.19;2079592;28;20223;-75
2021/01/20 04:09:05;;;;;;;34.80;31.15;;;;;;;0.33;100.00;98361.13;2079271;28;20238;-75
2021/01/20 04:10:08;;;;;;;35.35;31.75;;;;;;;0.36;100.00;98371.94;2071170;28;20239;-75
2021/01/20 04:11:09;;;;;;;36.28;32.35;;;;;;;0.32;100.00;98365.59;2071002;28;20314;-75
2021/01/20 04:12:10;;;;;;;36.25;32.88;;;;;;;0.41;100.00;98379.06;2079394;28;20226;-76
2021/01/20 04:13:11;;;;;;;34.95;31.33;;;;;;;0.35;100.00;98370.38;2080234;28;20231;-76
2021/01/20 04:14:12;;;;;;;34.97;31.55;;;;;;;0.34;100.00;98371.38;2079254;28;20712;-76
2021/01/20 04:15:13;;;;;;;33.43;30.13;;;;;;;0.35;100.00;98374.78;2079455;28;20269;-76
2021/01/20 04:16:14;;;;;;;32.60;29.38;;;;;;;0.27;100.00;98362.94;2080231;28;20219;-76
2021/01/20 04:17:16;;;;;;;32.40;28.97;;;;;;;0.23;100.00;98352.13;2079305;28;20212;-76
2021/01/20 04:18:17;;;;;;;34.50;30.90;;;;;;;0.30;100.00;98359.81;2079415;28;21002;-75
2021/01/20 04:19:19;;;;;;;35.38;31.85;;;;;;;0.36;100.00;98377.19;2079361;28;20223;-75
2021/01/20 04:20:20;;;;;;;32.65;29.15;;;;;;;0.38;100.00;98363.81;2079414;28;20223;-78
2021/01/20 04:21:21;;;;;;;32.70;29.60;;;;;;;0.35;100.00;98359.88;2080175;28;20230;-79
2021/01/20 04:22:23;;;;;;;33.80;30.55;;;;;;;0.39;100.00;98366.19;2072778;28;20275;-76
2021/01/20 04:23:24;;;;;;;34.60;31.00;;;;;;;0.36;100.00;98361.44;2071172;28;20224;-76
2021/01/20 04:24:25;;;;;;;34.90;31.45;;;;;;;0.39;100.00;98371.44;2077725;28;20661;-75
2021/01/20 04:25:26;;;;;;;35.17;31.73;;;;;;;0.38;100.00;98363.81;2079488;28;20227;-76
2021/01/20 04:26:27;;;;;;;34.38;31.08;;;;;;;0.38;100.00;98369.06;2078044;28;20622;-76
2021/01/20 04:27:28;;;;;;;33.90;30.27;;;;;;;0.32;100.00;98355.09;2079204;28;20633;-78
2021/01/20 04:28:29;;;;;;;31.33;28.42;;;;;;;0.38;100.00;98369.06;2079315;28;20693;-77
2021/01/20 04:29:31;;;;;;;31.35;28.25;;;;;;;0.39;100.00;98371.44;2080061;28;20227;-78
2021/01/20 04:30:32;;;;;;;31.48;28.27;;;;;;;0.41;100.00;98369.34;2079370;28;20327;-77
2021/01/20 04:31:33;;;;;;;31.10;27.77;;;;;;;0.32;100.00;98354.31;2079429;28;20232;-78
2021/01/20 04:32:34;;;;;;;30.92;27.80;;;;;;;0.41;100.00;98360.69;2079348;28;20223;-78
2021/01/20 04:33:36;;;;;;;32.83;29.50;;;;;;;0.48;100.00;98358.66;2079322;28;20231;-77
2021/01/20 04:34:37;;;;;;;31.88;28.48;;;;;;;0.49;100.00;98366.28;2079661;28;20255;-78
2021/01/20 04:35:38;;;;;;;31.90;28.57;;;;;;;0.49;100.00;98368.91;2080079;28;20297;-78
2021/01/20 04:36:40;;;;;;;32.03;28.90;;;;;;;0.56;100.00;98366.88;2080008;28;20230;-77
2021/01/20 04:37:41;;;;;;;31.38;28.30;;;;;;;0.45;100.00;98356.56;2079268;28;20314;-78
2021/01/20 04:38:42;;;;;;;31.60;28.60;;;;;;;0.44;100.00;98358.38;2079457;28;20266;-78
2021/01/20 04:39:43;;;;;;;29.13;26.17;;;;;;;0.50;100.00;98364.47;2080099;28;20749;-78
2021/01/20 04:40:44;;;;;;;29.57;26.57;;;;;;;0.49;100.00;98361.03;2079300;28;20646;-78
2021/01/20 04:41:45;;;;;;;29.20;26.33;;;;;;;0.54;100.00;98366.34;2079101;28;20223;-75
2021/01/20 04:42:47;;;;;;;29.00;26.10;;;;;;;0.54;100.00;98370.81;2079239;28;20227;-78
2021/01/20 04:43:48;;;;;;;27.88;24.83;;;;;;;0.55;100.00;98359.28;2095515;28;20238;-77
2021/01/20 04:44:51;;;;;;;30.30;27.20;;;;;;;0.45;100.00;98353.94;2087484;28;20227;-78
2021/01/20 04:45:52;;;;;;;29.52;26.40;;;;;;;0.48;100.00;98361.28;2080189;28;20216;-79
2021/01/20 04:46:53;;;;;;;32.20;26.08;;;;;;;0.53;100.00;98367.41;2081275;28;20587;-79
2021/01/20 04:47:55;;;;;;;30.83;27.75;;;;;;;0.57;100.00;98372.94;2081646;28;20227;-78
2021/01/20 04:48:58;;;;;;;30.33;27.15;;;;;;;0.55;100.00;98365.31;2080619;28;20231;-78
2021/01/20 04:49:59;;;;;;;28.15;24.80;;;;;;;0.47;100.00;98357.88;2080929;28;20230;-78
2021/01/20 04:51:02;;;;;;;28.35;25.50;;;;;;;0.51;100.00;98352.91;2081344;28;20215;-78
2021/01/20 04:52:06;;;;;;;28.88;26.02;;;;;;;0.60;100.00;98369.00;2080198;28;20661;-78
2021/01/20 04:53:09;;;;;;;30.77;25.67;;;;;;;0.52;100.00;98355.31;2080333;28;20227;-78
2021/01/20 04:54:11;;;;;;;29.85;26.80;;;;;;;0.50;100.00;98357.38;2080547;28;20302;-78
2021/01/20 04:55:13;;;;;;;28.15;25.30;;;;;;;0.51;100.00;98351.09;2080705;28;20227;-78
2021/01/20 04:56:15;;;;;;;28.27;25.45;;;;;;;0.46;100.00;98345.81;2081557;28;20219;-77
2021/01/20 04:57:16;;;;;;;29.88;26.73;;;;;;;0.63;100.00;98363.28;2081268;28;20242;-78
2021/01/20 04:58:18;;;;;;;29.10;26.13;;;;;;;0.54;100.00;98349.81;2080629;28;20276;-78